sensor_id;sensor_type;location;lat;lon;timestamp;P1;durP1;ratioP1;P2;durP2;ratioP2
55423;SDS011;41294;42.666;23.350;2023-02-20T00:01:48;11.20;;;6.73;;
55423;SDS011;41294;42.666;23.350;2023-02-20T00:04:16;9.87;;;6.60;;
55423;SDS011;41294;42.666;23.350;2023-02-20T00:06:43;12.07;;;7.57;;
55423;SDS011;41294;42.666;23.350;2023-02-20T00:09:09;10.67;;;7.23;;
55423;SDS011;41294;42.666;23.350;2023-02-20T00:11:34;9.17;;;7.13;;
55423;SDS011;41294;42.666;23.350;2023-02-20T00:14:00;14.03;;;7.10;;
55423;SDS011;41294;42.666;23.350;2023-02-20T00:16:25;8.73;;;6.77;;
55423;SDS011;41294;42.666;23.350;2023-02-20T00:18:50;9.60;;;7.77;;
55423;SDS011;41294;42.666;23.350;2023-02-20T00:21:17;9.90;;;7.47;;
55423;SDS011;41294;42.666;23.350;2023-02-20T00:23:42;8.27;;;6.37;;
55423;SDS011;41294;42.666;23.350;2023-02-20T00:26:09;12.27;;;7.07;;
55423;SDS011;41294;42.666;23.350;2023-02-20T00:28:39;10.40;;;7.60;;
55423;SDS011;41294;42.666;23.350;2023-02-20T00:31:05;9.40;;;7.47;;
55423;SDS011;41294;42.666;23.350;2023-02-20T00:33:31;12.83;;;7.50;;
55423;SDS011;41294;42.666;23.350;2023-02-20T00:35:57;10.10;;;7.10;;
55423;SDS011;41294;42.666;23.350;2023-02-20T00:38:23;10.83;;;7.27;;
55423;SDS011;41294;42.666;23.350;2023-02-20T00:40:48;9.87;;;7.00;;
55423;SDS011;41294;42.666;23.350;2023-02-20T00:43:14;8.83;;;6.70;;
55423;SDS011;41294;42.666;23.350;2023-02-20T00:45:39;10.33;;;7.57;;
55423;SDS011;41294;42.666;23.350;2023-02-20T00:48:05;11.27;;;7.87;;
55423;SDS011;41294;42.666;23.350;2023-02-20T00:50:30;10.77;;;6.93;;
55423;SDS011;41294;42.666;23.350;2023-02-20T00:52:57;9.27;;;7.53;;
55423;SDS011;41294;42.666;23.350;2023-02-20T00:55:23;8.60;;;6.77;;
55423;SDS011;41294;42.666;23.350;2023-02-20T00:57:49;11.10;;;7.97;;
55423;SDS011;41294;42.666;23.350;2023-02-20T01:00:19;8.83;;;7.20;;
55423;SDS011;41294;42.666;23.350;2023-02-20T01:02:46;10.33;;;7.63;;
55423;SDS011;41294;42.666;23.350;2023-02-20T01:05:12;8.90;;;6.63;;
55423;SDS011;41294;42.666;23.350;2023-02-20T01:07:38;9.40;;;7.53;;
55423;SDS011;41294;42.666;23.350;2023-02-20T01:10:03;14.03;;;7.73;;
55423;SDS011;41294;42.666;23.350;2023-02-20T01:12:29;8.80;;;7.10;;
55423;SDS011;41294;42.666;23.350;2023-02-20T01:14:54;9.73;;;7.53;;
55423;SDS011;41294;42.666;23.350;2023-02-20T01:17:20;10.93;;;7.57;;
55423;SDS011;41294;42.666;23.350;2023-02-20T01:19:45;9.77;;;7.83;;
55423;SDS011;41294;42.666;23.350;2023-02-20T01:22:11;11.30;;;8.17;;
55423;SDS011;41294;42.666;23.350;2023-02-20T01:24:36;10.30;;;7.40;;
55423;SDS011;41294;42.666;23.350;2023-02-20T01:27:02;9.43;;;7.53;;
55423;SDS011;41294;42.666;23.350;2023-02-20T01:29:27;10.63;;;7.80;;
55423;SDS011;41294;42.666;23.350;2023-02-20T01:31:54;9.63;;;7.60;;
55423;SDS011;41294;42.666;23.350;2023-02-20T01:34:20;9.20;;;7.70;;
55423;SDS011;41294;42.666;23.350;2023-02-20T01:36:49;11.53;;;8.53;;
55423;SDS011;41294;42.666;23.350;2023-02-20T01:39:20;13.23;;;8.03;;
55423;SDS011;41294;42.666;23.350;2023-02-20T01:41:54;9.73;;;8.10;;
55423;SDS011;41294;42.666;23.350;2023-02-20T01:44:25;10.73;;;7.80;;
55423;SDS011;41294;42.666;23.350;2023-02-20T01:46:55;10.37;;;7.83;;
55423;SDS011;41294;42.666;23.350;2023-02-20T01:49:33;13.00;;;8.80;;
55423;SDS011;41294;42.666;23.350;2023-02-20T01:52:07;11.43;;;7.80;;
55423;SDS011;41294;42.666;23.350;2023-02-20T01:54:38;12.87;;;8.73;;
55423;SDS011;41294;42.666;23.350;2023-02-20T01:57:07;13.63;;;8.73;;
55423;SDS011;41294;42.666;23.350;2023-02-20T01:59:41;12.47;;;8.47;;
55423;SDS011;41294;42.666;23.350;2023-02-20T02:02:09;12.33;;;8.10;;
55423;SDS011;41294;42.666;23.350;2023-02-20T02:04:35;11.67;;;8.97;;
55423;SDS011;41294;42.666;23.350;2023-02-20T02:07:03;11.40;;;8.63;;
55423;SDS011;41294;42.666;23.350;2023-02-20T02:12:27;10.70;;;8.20;;
55423;SDS011;41294;42.666;23.350;2023-02-20T02:14:53;12.87;;;8.07;;
55423;SDS011;41294;42.666;23.350;2023-02-20T02:20:12;11.53;;;6.97;;
55423;SDS011;41294;42.666;23.350;2023-02-20T02:36:25;4.03;;;3.63;;
55423;SDS011;41294;42.666;23.350;2023-02-20T02:39:03;4.00;;;3.60;;
55423;SDS011;41294;42.666;23.350;2023-02-20T02:50:39;3.20;;;2.90;;
55423;SDS011;41294;42.666;23.350;2023-02-20T02:53:08;3.67;;;3.13;;
55423;SDS011;41294;42.666;23.350;2023-02-20T02:55:34;4.30;;;3.20;;
55423;SDS011;41294;42.666;23.350;2023-02-20T02:58:01;3.83;;;3.43;;
55423;SDS011;41294;42.666;23.350;2023-02-20T03:00:38;3.77;;;3.00;;
55423;SDS011;41294;42.666;23.350;2023-02-20T03:03:15;3.30;;;3.00;;
55423;SDS011;41294;42.666;23.350;2023-02-20T03:05:54;3.60;;;3.20;;
55423;SDS011;41294;42.666;23.350;2023-02-20T03:10:54;3.13;;;2.80;;
55423;SDS011;41294;42.666;23.350;2023-02-20T03:13:21;3.40;;;3.10;;
55423;SDS011;41294;42.666;23.350;2023-02-20T03:16:07;3.33;;;2.90;;
55423;SDS011;41294;42.666;23.350;2023-02-20T03:18:35;3.30;;;3.00;;
55423;SDS011;41294;42.666;23.350;2023-02-20T03:21:07;3.17;;;2.80;;
55423;SDS011;41294;42.666;23.350;2023-02-20T03:23:39;3.40;;;2.47;;
55423;SDS011;41294;42.666;23.350;2023-02-20T03:26:09;2.77;;;2.57;;
55423;SDS011;41294;42.666;23.350;2023-02-20T03:32:08;4.87;;;2.50;;
55423;SDS011;41294;42.666;23.350;2023-02-20T03:34:54;2.80;;;2.50;;
55423;SDS011;41294;42.666;23.350;2023-02-20T03:37:40;3.20;;;2.70;;
55423;SDS011;41294;42.666;23.350;2023-02-20T03:40:28;3.07;;;2.23;;
55423;SDS011;41294;42.666;23.350;2023-02-20T03:43:16;4.50;;;2.50;;
55423;SDS011;41294;42.666;23.350;2023-02-20T03:46:22;2.87;;;2.63;;
55423;SDS011;41294;42.666;23.350;2023-02-20T03:48:52;3.10;;;2.37;;
55423;SDS011;41294;42.666;23.350;2023-02-20T03:51:22;3.13;;;2.47;;
55423;SDS011;41294;42.666;23.350;2023-02-20T03:53:47;2.57;;;2.37;;
55423;SDS011;41294;42.666;23.350;2023-02-20T03:56:15;5.77;;;2.80;;
55423;SDS011;41294;42.666;23.350;2023-02-20T03:58:46;2.30;;;2.07;;
55423;SDS011;41294;42.666;23.350;2023-02-20T04:01:16;2.47;;;2.27;;
55423;SDS011;41294;42.666;23.350;2023-02-20T04:03:45;2.73;;;2.43;;
55423;SDS011;41294;42.666;23.350;2023-02-20T04:06:13;2.53;;;2.33;;
55423;SDS011;41294;42.666;23.350;2023-02-20T04:11:19;2.40;;;2.20;;
55423;SDS011;41294;42.666;23.350;2023-02-20T04:13:49;2.97;;;2.67;;
55423;SDS011;41294;42.666;23.350;2023-02-20T04:16:17;2.10;;;2.00;;
55423;SDS011;41294;42.666;23.350;2023-02-20T04:18:42;2.43;;;2.23;;
55423;SDS011;41294;42.666;23.350;2023-02-20T04:21:17;2.47;;;2.27;;
55423;SDS011;41294;42.666;23.350;2023-02-20T04:23:49;2.40;;;2.17;;
55423;SDS011;41294;42.666;23.350;2023-02-20T04:26:25;2.20;;;2.00;;
55423;SDS011;41294;42.666;23.350;2023-02-20T04:28:51;3.03;;;2.63;;
55423;SDS011;41294;42.666;23.350;2023-02-20T04:31:18;2.63;;;2.43;;
55423;SDS011;41294;42.666;23.350;2023-02-20T04:33:45;2.43;;;2.20;;
55423;SDS011;41294;42.666;23.350;2023-02-20T04:36:11;7.37;;;2.40;;
55423;SDS011;41294;42.666;23.350;2023-02-20T04:38:36;3.47;;;2.63;;
55423;SDS011;41294;42.666;23.350;2023-02-20T04:41:02;2.50;;;2.30;;
55423;SDS011;41294;42.666;23.350;2023-02-20T04:43:27;2.80;;;2.47;;
55423;SDS011;41294;42.666;23.350;2023-02-20T04:45:52;2.60;;;2.40;;
55423;SDS011;41294;42.666;23.350;2023-02-20T04:48:18;2.90;;;2.43;;
55423;SDS011;41294;42.666;23.350;2023-02-20T04:50:43;3.30;;;2.40;;
55423;SDS011;41294;42.666;23.350;2023-02-20T04:53:08;2.50;;;2.30;;
55423;SDS011;41294;42.666;23.350;2023-02-20T04:55:34;2.67;;;2.33;;
55423;SDS011;41294;42.666;23.350;2023-02-20T04:57:59;2.60;;;2.40;;
55423;SDS011;41294;42.666;23.350;2023-02-20T05:00:25;2.77;;;2.40;;
55423;SDS011;41294;42.666;23.350;2023-02-20T05:02:51;3.63;;;2.10;;
55423;SDS011;41294;42.666;23.350;2023-02-20T05:07:47;2.10;;;1.90;;
55423;SDS011;41294;42.666;23.350;2023-02-20T05:10:15;5.33;;;2.07;;
55423;SDS011;41294;42.666;23.350;2023-02-20T05:12:45;4.53;;;1.87;;
55423;SDS011;41294;42.666;23.350;2023-02-20T05:15:11;1.80;;;1.70;;
55423;SDS011;41294;42.666;23.350;2023-02-20T05:17:37;8.27;;;2.53;;
55423;SDS011;41294;42.666;23.350;2023-02-20T05:20:03;4.90;;;2.17;;
55423;SDS011;41294;42.666;23.350;2023-02-20T05:22:29;2.90;;;1.90;;
55423;SDS011;41294;42.666;23.350;2023-02-20T05:24:55;2.90;;;2.00;;
55423;SDS011;41294;42.666;23.350;2023-02-20T05:27:21;2.73;;;1.83;;
55423;SDS011;41294;42.666;23.350;2023-02-20T05:29:48;2.13;;;1.80;;
55423;SDS011;41294;42.666;23.350;2023-02-20T05:32:15;4.13;;;2.30;;
55423;SDS011;41294;42.666;23.350;2023-02-20T05:34:45;2.37;;;2.17;;
55423;SDS011;41294;42.666;23.350;2023-02-20T05:37:11;3.60;;;2.10;;
55423;SDS011;41294;42.666;23.350;2023-02-20T05:39:37;8.10;;;2.73;;
55423;SDS011;41294;42.666;23.350;2023-02-20T05:42:06;3.33;;;2.23;;
55423;SDS011;41294;42.666;23.350;2023-02-20T05:44:33;4.10;;;2.47;;
55423;SDS011;41294;42.666;23.350;2023-02-20T05:46:59;2.60;;;2.40;;
55423;SDS011;41294;42.666;23.350;2023-02-20T05:49:25;5.13;;;3.30;;
55423;SDS011;41294;42.666;23.350;2023-02-20T05:51:51;6.50;;;3.20;;
55423;SDS011;41294;42.666;23.350;2023-02-20T05:54:20;4.40;;;3.10;;
55423;SDS011;41294;42.666;23.350;2023-02-20T05:56:45;7.00;;;3.80;;
55423;SDS011;41294;42.666;23.350;2023-02-20T05:59:12;5.43;;;3.30;;
55423;SDS011;41294;42.666;23.350;2023-02-20T06:01:41;5.80;;;3.27;;
55423;SDS011;41294;42.666;23.350;2023-02-20T06:04:06;3.77;;;3.20;;
55423;SDS011;41294;42.666;23.350;2023-02-20T06:06:32;3.60;;;3.30;;
55423;SDS011;41294;42.666;23.350;2023-02-20T06:09:03;3.70;;;3.33;;
55423;SDS011;41294;42.666;23.350;2023-02-20T06:11:34;3.83;;;3.10;;
55423;SDS011;41294;42.666;23.350;2023-02-20T06:14:01;3.90;;;3.60;;
55423;SDS011;41294;42.666;23.350;2023-02-20T06:16:27;6.60;;;4.33;;
55423;SDS011;41294;42.666;23.350;2023-02-20T06:18:54;6.53;;;3.10;;
55423;SDS011;41294;42.666;23.350;2023-02-20T06:21:21;2.40;;;2.30;;
55423;SDS011;41294;42.666;23.350;2023-02-20T06:23:48;3.53;;;2.97;;
55423;SDS011;41294;42.666;23.350;2023-02-20T06:26:14;7.20;;;3.27;;
55423;SDS011;41294;42.666;23.350;2023-02-20T06:28:41;3.60;;;2.50;;
55423;SDS011;41294;42.666;23.350;2023-02-20T06:31:07;2.70;;;2.50;;
55423;SDS011;41294;42.666;23.350;2023-02-20T06:33:34;5.70;;;2.87;;
55423;SDS011;41294;42.666;23.350;2023-02-20T06:36:00;4.40;;;2.57;;
55423;SDS011;41294;42.666;23.350;2023-02-20T06:38:26;2.70;;;2.50;;
55423;SDS011;41294;42.666;23.350;2023-02-20T06:40:52;3.67;;;3.37;;
55423;SDS011;41294;42.666;23.350;2023-02-20T06:43:17;6.67;;;2.87;;
55423;SDS011;41294;42.666;23.350;2023-02-20T06:45:43;11.70;;;2.60;;
55423;SDS011;41294;42.666;23.350;2023-02-20T06:48:09;5.10;;;2.97;;
55423;SDS011;41294;42.666;23.350;2023-02-20T06:50:35;3.10;;;2.80;;
55423;SDS011;41294;42.666;23.350;2023-02-20T06:53:00;3.23;;;2.80;;
55423;SDS011;41294;42.666;23.350;2023-02-20T06:55:26;3.40;;;2.90;;
55423;SDS011;41294;42.666;23.350;2023-02-20T06:57:52;4.00;;;3.20;;
55423;SDS011;41294;42.666;23.350;2023-02-20T07:00:17;5.43;;;3.10;;
55423;SDS011;41294;42.666;23.350;2023-02-20T07:02:43;4.97;;;3.10;;
55423;SDS011;41294;42.666;23.350;2023-02-20T07:05:10;8.73;;;3.03;;
55423;SDS011;41294;42.666;23.350;2023-02-20T07:07:36;4.23;;;3.63;;
55423;SDS011;41294;42.666;23.350;2023-02-20T07:10:02;3.53;;;2.90;;
55423;SDS011;41294;42.666;23.350;2023-02-20T07:12:31;5.17;;;2.80;;
55423;SDS011;41294;42.666;23.350;2023-02-20T07:14:58;5.37;;;2.80;;
55423;SDS011;41294;42.666;23.350;2023-02-20T07:17:23;3.77;;;2.70;;
55423;SDS011;41294;42.666;23.350;2023-02-20T07:19:49;5.47;;;2.33;;
55423;SDS011;41294;42.666;23.350;2023-02-20T07:22:15;4.37;;;2.83;;
55423;SDS011;41294;42.666;23.350;2023-02-20T07:24:41;2.87;;;2.30;;
55423;SDS011;41294;42.666;23.350;2023-02-20T07:27:07;3.83;;;1.90;;
55423;SDS011;41294;42.666;23.350;2023-02-20T07:29:34;8.03;;;2.43;;
55423;SDS011;41294;42.666;23.350;2023-02-20T07:32:05;3.60;;;2.00;;
55423;SDS011;41294;42.666;23.350;2023-02-20T07:34:32;3.00;;;2.07;;
55423;SDS011;41294;42.666;23.350;2023-02-20T07:36:58;2.20;;;1.80;;
55423;SDS011;41294;42.666;23.350;2023-02-20T07:39:23;8.83;;;2.30;;
55423;SDS011;41294;42.666;23.350;2023-02-20T07:41:50;3.13;;;1.80;;
55423;SDS011;41294;42.666;23.350;2023-02-20T07:44:16;1.93;;;1.80;;
55423;SDS011;41294;42.666;23.350;2023-02-20T07:46:41;5.07;;;1.93;;
55423;SDS011;41294;42.666;23.350;2023-02-20T07:49:08;1.87;;;1.60;;
55423;SDS011;41294;42.666;23.350;2023-02-20T07:51:33;1.57;;;1.47;;
55423;SDS011;41294;42.666;23.350;2023-02-20T07:54:00;2.10;;;1.90;;
55423;SDS011;41294;42.666;23.350;2023-02-20T07:56:26;3.23;;;1.70;;
55423;SDS011;41294;42.666;23.350;2023-02-20T07:58:52;2.53;;;1.87;;
55423;SDS011;41294;42.666;23.350;2023-02-20T08:01:17;1.80;;;1.70;;
55423;SDS011;41294;42.666;23.350;2023-02-20T08:03:43;7.20;;;2.20;;
55423;SDS011;41294;42.666;23.350;2023-02-20T08:06:09;2.30;;;1.50;;
55423;SDS011;41294;42.666;23.350;2023-02-20T08:08:35;5.00;;;1.53;;
55423;SDS011;41294;42.666;23.350;2023-02-20T08:11:00;1.80;;;1.70;;
55423;SDS011;41294;42.666;23.350;2023-02-20T08:13:26;1.17;;;1.17;;
55423;SDS011;41294;42.666;23.350;2023-02-20T08:15:52;2.58;;;1.80;;
55423;SDS011;41294;42.666;23.350;2023-02-20T08:18:17;3.28;;;1.85;;
55423;SDS011;41294;42.666;23.350;2023-02-20T08:20:43;2.38;;;1.73;;
55423;SDS011;41294;42.666;23.350;2023-02-20T08:23:18;14.75;;;1.90;;
55423;SDS011;41294;42.666;23.350;2023-02-20T08:25:45;17.80;;;2.00;;
55423;SDS011;41294;42.666;23.350;2023-02-20T08:28:11;7.00;;;1.58;;
55423;SDS011;41294;42.666;23.350;2023-02-20T08:30:38;8.07;;;1.20;;
55423;SDS011;41294;42.666;23.350;2023-02-20T08:33:03;4.57;;;1.38;;
55423;SDS011;41294;42.666;23.350;2023-02-20T08:35:33;3.67;;;1.35;;
55423;SDS011;41294;42.666;23.350;2023-02-20T08:38:00;1.65;;;1.20;;
55423;SDS011;41294;42.666;23.350;2023-02-20T08:40:26;3.10;;;1.15;;
55423;SDS011;41294;42.666;23.350;2023-02-20T08:42:52;3.00;;;1.13;;
55423;SDS011;41294;42.666;23.350;2023-02-20T08:45:17;1.48;;;1.05;;
55423;SDS011;41294;42.666;23.350;2023-02-20T08:47:42;1.65;;;1.20;;
55423;SDS011;41294;42.666;23.350;2023-02-20T08:50:08;1.90;;;1.20;;
55423;SDS011;41294;42.666;23.350;2023-02-20T08:52:34;4.00;;;1.70;;
55423;SDS011;41294;42.666;23.350;2023-02-20T08:54:59;7.25;;;1.88;;
55423;SDS011;41294;42.666;23.350;2023-02-20T08:57:24;27.70;;;2.20;;
55423;SDS011;41294;42.666;23.350;2023-02-20T08:59:50;1.05;;;1.00;;
55423;SDS011;41294;42.666;23.350;2023-02-20T09:02:19;1.25;;;1.10;;
55423;SDS011;41294;42.666;23.350;2023-02-20T09:04:48;1.20;;;1.10;;
55423;SDS011;41294;42.666;23.350;2023-02-20T09:07:16;2.10;;;1.20;;
55423;SDS011;41294;42.666;23.350;2023-02-20T09:09:41;2.97;;;1.08;;
55423;SDS011;41294;42.666;23.350;2023-02-20T09:12:07;3.85;;;1.90;;
55423;SDS011;41294;42.666;23.350;2023-02-20T09:14:33;4.55;;;1.25;;
55423;SDS011;41294;42.666;23.350;2023-02-20T09:16:59;3.13;;;1.02;;
55423;SDS011;41294;42.666;23.350;2023-02-20T09:19:24;1.70;;;1.20;;
55423;SDS011;41294;42.666;23.350;2023-02-20T09:21:49;6.30;;;1.15;;
55423;SDS011;41294;42.666;23.350;2023-02-20T09:24:15;3.03;;;1.20;;
55423;SDS011;41294;42.666;23.350;2023-02-20T09:26:41;4.80;;;1.40;;
55423;SDS011;41294;42.666;23.350;2023-02-20T09:29:07;10.55;;;1.80;;
55423;SDS011;41294;42.666;23.350;2023-02-20T09:31:32;5.13;;;1.40;;
55423;SDS011;41294;42.666;23.350;2023-02-20T09:33:57;5.13;;;1.10;;
55423;SDS011;41294;42.666;23.350;2023-02-20T09:36:24;6.03;;;1.20;;
55423;SDS011;41294;42.666;23.350;2023-02-20T09:38:49;5.30;;;1.55;;
55423;SDS011;41294;42.666;23.350;2023-02-20T09:44:18;2.45;;;1.60;;
55423;SDS011;41294;42.666;23.350;2023-02-20T09:46:50;5.95;;;1.70;;
55423;SDS011;41294;42.666;23.350;2023-02-20T09:49:18;2.33;;;1.35;;
55423;SDS011;41294;42.666;23.350;2023-02-20T09:51:59;1.20;;;1.20;;
55423;SDS011;41294;42.666;23.350;2023-02-20T09:57:09;5.20;;;1.20;;
55423;SDS011;41294;42.666;23.350;2023-02-20T09:59:57;3.15;;;1.20;;
55423;SDS011;41294;42.666;23.350;2023-02-20T10:02:32;13.52;;;1.50;;
55423;SDS011;41294;42.666;23.350;2023-02-20T10:05:02;2.75;;;0.90;;
55423;SDS011;41294;42.666;23.350;2023-02-20T10:07:32;1.85;;;1.17;;
55423;SDS011;41294;42.666;23.350;2023-02-20T10:10:04;1.33;;;1.10;;
55423;SDS011;41294;42.666;23.350;2023-02-20T10:24:25;1.90;;;1.40;;
55423;SDS011;41294;42.666;23.350;2023-02-20T10:27:03;4.65;;;1.42;;
55423;SDS011;41294;42.666;23.350;2023-02-20T10:29:39;2.78;;;1.88;;
55423;SDS011;41294;42.666;23.350;2023-02-20T10:32:08;1.15;;;1.10;;
55423;SDS011;41294;42.666;23.350;2023-02-20T10:34:40;1.95;;;1.40;;
55423;SDS011;41294;42.666;23.350;2023-02-20T10:37:19;1.45;;;1.30;;
55423;SDS011;41294;42.666;23.350;2023-02-20T10:39:52;4.63;;;1.10;;
55423;SDS011;41294;42.666;23.350;2023-02-20T10:42:36;1.40;;;1.30;;
55423;SDS011;41294;42.666;23.350;2023-02-20T10:45:19;2.63;;;1.20;;
55423;SDS011;41294;42.666;23.350;2023-02-20T10:50:40;1.83;;;1.60;;
55423;SDS011;41294;42.666;23.350;2023-02-20T10:53:48;1.05;;;1.05;;
55423;SDS011;41294;42.666;23.350;2023-02-20T10:59:10;2.25;;;1.15;;
55423;SDS011;41294;42.666;23.350;2023-02-20T11:01:42;2.15;;;1.25;;
55423;SDS011;41294;42.666;23.350;2023-02-20T11:04:24;2.15;;;1.30;;
55423;SDS011;41294;42.666;23.350;2023-02-20T11:06:54;1.30;;;1.20;;
55423;SDS011;41294;42.666;23.350;2023-02-20T11:09:22;1.30;;;1.13;;
55423;SDS011;41294;42.666;23.350;2023-02-20T11:11:50;4.93;;;1.33;;
55423;SDS011;41294;42.666;23.350;2023-02-20T11:14:20;6.25;;;1.98;;
55423;SDS011;41294;42.666;23.350;2023-02-20T11:17:08;5.45;;;1.48;;
55423;SDS011;41294;42.666;23.350;2023-02-20T11:22:11;1.23;;;1.13;;
55423;SDS011;41294;42.666;23.350;2023-02-20T11:24:38;1.40;;;1.30;;
55423;SDS011;41294;42.666;23.350;2023-02-20T11:29:47;4.82;;;1.30;;
55423;SDS011;41294;42.666;23.350;2023-02-20T11:35:28;4.70;;;0.95;;
55423;SDS011;41294;42.666;23.350;2023-02-20T11:38:36;2.25;;;1.20;;
55423;SDS011;41294;42.666;23.350;2023-02-20T11:40:41;1.55;;;1.35;;
55423;SDS011;41294;42.666;23.350;2023-02-20T11:43:19;1.17;;;1.00;;
55423;SDS011;41294;42.666;23.350;2023-02-20T11:45:48;1.92;;;1.42;;
55423;SDS011;41294;42.666;23.350;2023-02-20T11:50:44;1.90;;;1.00;;
55423;SDS011;41294;42.666;23.350;2023-02-20T11:56:06;3.80;;;1.33;;
55423;SDS011;41294;42.666;23.350;2023-02-20T11:58:36;2.55;;;1.10;;
55423;SDS011;41294;42.666;23.350;2023-02-20T12:01:02;6.63;;;1.38;;
55423;SDS011;41294;42.666;23.350;2023-02-20T12:03:29;1.10;;;1.10;;
55423;SDS011;41294;42.666;23.350;2023-02-20T12:05:58;1.30;;;1.20;;
55423;SDS011;41294;42.666;23.350;2023-02-20T12:11:04;1.00;;;1.00;;
55423;SDS011;41294;42.666;23.350;2023-02-20T12:13:31;4.53;;;0.93;;
55423;SDS011;41294;42.666;23.350;2023-02-20T12:35:35;1.02;;;0.93;;
55423;SDS011;41294;42.666;23.350;2023-02-20T12:46:22;1.97;;;1.10;;
55423;SDS011;41294;42.666;23.350;2023-02-20T12:51:51;1.00;;;0.90;;
55423;SDS011;41294;42.666;23.350;2023-02-20T13:02:28;2.83;;;0.90;;
55423;SDS011;41294;42.666;23.350;2023-02-20T13:04:59;1.70;;;0.90;;
55423;SDS011;41294;42.666;23.350;2023-02-20T13:07:30;1.13;;;1.13;;
55423;SDS011;41294;42.666;23.350;2023-02-20T13:10:15;0.80;;;0.80;;
55423;SDS011;41294;42.666;23.350;2023-02-20T13:12:44;2.50;;;1.00;;
55423;SDS011;41294;42.666;23.350;2023-02-20T13:20:31;0.90;;;0.90;;
55423;SDS011;41294;42.666;23.350;2023-02-20T13:23:25;1.00;;;1.00;;
55423;SDS011;41294;42.666;23.350;2023-02-20T13:25:48;0.97;;;0.97;;
55423;SDS011;41294;42.666;23.350;2023-02-20T13:28:25;4.93;;;1.20;;
55423;SDS011;41294;42.666;23.350;2023-02-20T13:33:48;1.27;;;1.17;;
55423;SDS011;41294;42.666;23.350;2023-02-20T13:36:35;9.13;;;1.30;;
55423;SDS011;41294;42.666;23.350;2023-02-20T13:44:41;2.13;;;1.13;;
55423;SDS011;41294;42.666;23.350;2023-02-20T13:57:29;1.00;;;1.00;;
55423;SDS011;41294;42.666;23.350;2023-02-20T13:59:58;2.13;;;1.17;;
55423;SDS011;41294;42.666;23.350;2023-02-20T14:02:24;1.57;;;0.90;;
55423;SDS011;41294;42.666;23.350;2023-02-20T14:04:56;2.93;;;1.13;;
55423;SDS011;41294;42.666;23.350;2023-02-20T14:07:33;2.77;;;1.40;;
55423;SDS011;41294;42.666;23.350;2023-02-20T14:12:42;2.87;;;1.27;;
55423;SDS011;41294;42.666;23.350;2023-02-20T14:15:08;1.00;;;1.00;;
55423;SDS011;41294;42.666;23.350;2023-02-20T14:17:34;2.23;;;1.20;;
55423;SDS011;41294;42.666;23.350;2023-02-20T14:20:03;1.30;;;1.20;;
55423;SDS011;41294;42.666;23.350;2023-02-20T14:22:33;1.20;;;1.10;;
55423;SDS011;41294;42.666;23.350;2023-02-20T14:27:27;4.23;;;1.30;;
55423;SDS011;41294;42.666;23.350;2023-02-20T14:30:03;3.03;;;1.10;;
55423;SDS011;41294;42.666;23.350;2023-02-20T14:32:30;1.83;;;1.70;;
55423;SDS011;41294;42.666;23.350;2023-02-20T14:34:57;1.20;;;1.10;;
55423;SDS011;41294;42.666;23.350;2023-02-20T14:37:33;1.33;;;1.17;;
55423;SDS011;41294;42.666;23.350;2023-02-20T14:42:51;1.20;;;1.10;;
55423;SDS011;41294;42.666;23.350;2023-02-20T14:45:20;1.20;;;1.10;;
55423;SDS011;41294;42.666;23.350;2023-02-20T14:47:58;4.33;;;1.60;;
55423;SDS011;41294;42.666;23.350;2023-02-20T14:55:36;2.77;;;1.30;;
55423;SDS011;41294;42.666;23.350;2023-02-20T14:58:09;1.47;;;1.10;;
55423;SDS011;41294;42.666;23.350;2023-02-20T15:00:38;1.30;;;1.20;;
55423;SDS011;41294;42.666;23.350;2023-02-20T15:03:07;2.03;;;1.10;;
55423;SDS011;41294;42.666;23.350;2023-02-20T15:05:39;1.20;;;1.20;;
55423;SDS011;41294;42.666;23.350;2023-02-20T15:10:44;1.00;;;1.00;;
55423;SDS011;41294;42.666;23.350;2023-02-20T15:13:16;4.20;;;1.30;;
55423;SDS011;41294;42.666;23.350;2023-02-20T15:15:45;1.83;;;1.20;;
55423;SDS011;41294;42.666;23.350;2023-02-20T15:18:31;2.80;;;1.10;;
55423;SDS011;41294;42.666;23.350;2023-02-20T15:20:59;3.33;;;1.40;;
55423;SDS011;41294;42.666;23.350;2023-02-20T15:25:59;2.07;;;1.47;;
55423;SDS011;41294;42.666;23.350;2023-02-20T15:31:38;1.30;;;1.20;;
55423;SDS011;41294;42.666;23.350;2023-02-20T15:34:11;2.83;;;1.37;;
55423;SDS011;41294;42.666;23.350;2023-02-20T15:36:40;1.60;;;1.50;;
55423;SDS011;41294;42.666;23.350;2023-02-20T15:39:08;2.63;;;1.40;;
55423;SDS011;41294;42.666;23.350;2023-02-20T15:41:35;1.47;;;1.30;;
55423;SDS011;41294;42.666;23.350;2023-02-20T15:44:01;1.87;;;1.43;;
55423;SDS011;41294;42.666;23.350;2023-02-20T15:46:27;1.40;;;1.30;;
55423;SDS011;41294;42.666;23.350;2023-02-20T15:48:53;5.07;;;1.30;;
55423;SDS011;41294;42.666;23.350;2023-02-20T15:51:19;1.10;;;1.10;;
55423;SDS011;41294;42.666;23.350;2023-02-20T15:53:46;2.50;;;1.57;;
55423;SDS011;41294;42.666;23.350;2023-02-20T15:56:12;1.70;;;1.50;;
55423;SDS011;41294;42.666;23.350;2023-02-20T15:58:38;1.50;;;1.40;;
55423;SDS011;41294;42.666;23.350;2023-02-20T16:01:07;5.07;;;1.70;;
55423;SDS011;41294;42.666;23.350;2023-02-20T16:03:33;1.37;;;1.27;;
55423;SDS011;41294;42.666;23.350;2023-02-20T16:05:59;3.57;;;1.47;;
55423;SDS011;41294;42.666;23.350;2023-02-20T16:08:26;4.00;;;1.90;;
55423;SDS011;41294;42.666;23.350;2023-02-20T16:10:52;2.20;;;1.77;;
55423;SDS011;41294;42.666;23.350;2023-02-20T16:15:48;4.87;;;1.87;;
55423;SDS011;41294;42.666;23.350;2023-02-20T16:18:13;2.20;;;2.00;;
55423;SDS011;41294;42.666;23.350;2023-02-20T16:20:39;4.23;;;1.77;;
55423;SDS011;41294;42.666;23.350;2023-02-20T16:23:04;2.70;;;1.97;;
55423;SDS011;41294;42.666;23.350;2023-02-20T16:25:32;2.77;;;1.80;;
55423;SDS011;41294;42.666;23.350;2023-02-20T16:27:57;5.47;;;2.10;;
55423;SDS011;41294;42.666;23.350;2023-02-20T16:30:28;3.90;;;2.17;;
55423;SDS011;41294;42.666;23.350;2023-02-20T16:32:56;2.93;;;2.13;;
55423;SDS011;41294;42.666;23.350;2023-02-20T16:35:22;5.53;;;3.60;;
55423;SDS011;41294;42.666;23.350;2023-02-20T16:37:48;4.07;;;2.80;;
55423;SDS011;41294;42.666;23.350;2023-02-20T16:40:14;3.83;;;2.20;;
55423;SDS011;41294;42.666;23.350;2023-02-20T16:42:41;3.43;;;2.10;;
55423;SDS011;41294;42.666;23.350;2023-02-20T16:45:10;2.97;;;2.00;;
55423;SDS011;41294;42.666;23.350;2023-02-20T16:47:37;2.87;;;1.67;;
55423;SDS011;41294;42.666;23.350;2023-02-20T16:50:03;4.50;;;1.90;;
55423;SDS011;41294;42.666;23.350;2023-02-20T16:52:37;3.43;;;2.10;;
55423;SDS011;41294;42.666;23.350;2023-02-20T16:55:38;3.43;;;2.10;;
55423;SDS011;41294;42.666;23.350;2023-02-20T16:57:58;2.23;;;1.83;;
55423;SDS011;41294;42.666;23.350;2023-02-20T17:00:27;2.57;;;1.70;;
55423;SDS011;41294;42.666;23.350;2023-02-20T17:02:55;2.67;;;1.80;;
55423;SDS011;41294;42.666;23.350;2023-02-20T17:05:23;2.03;;;1.70;;
55423;SDS011;41294;42.666;23.350;2023-02-20T17:07:51;3.77;;;1.73;;
55423;SDS011;41294;42.666;23.350;2023-02-20T17:10:18;1.63;;;1.53;;
55423;SDS011;41294;42.666;23.350;2023-02-20T17:12:43;1.77;;;1.67;;
55423;SDS011;41294;42.666;23.350;2023-02-20T17:15:09;1.83;;;1.50;;
55423;SDS011;41294;42.666;23.350;2023-02-20T17:17:36;2.27;;;1.80;;
55423;SDS011;41294;42.666;23.350;2023-02-20T17:20:03;5.10;;;1.97;;
55423;SDS011;41294;42.666;23.350;2023-02-20T17:22:28;2.80;;;1.60;;
55423;SDS011;41294;42.666;23.350;2023-02-20T17:24:54;2.90;;;1.77;;
55423;SDS011;41294;42.666;23.350;2023-02-20T17:27:21;7.90;;;1.60;;
55423;SDS011;41294;42.666;23.350;2023-02-20T17:29:47;2.87;;;1.80;;